Time;durP1;ratioP1;P1;durP2;ratioP2;P2;SDS_P1;SDS_P2;PMS_P1;PMS_P2;Temp;Humidity;BMP_temperature;BMP_pressure;BME280_temperature;BME280_humidity;BME280_pressure;Samples;Min_cycle;Max_cycle;Signal;HPM_P1;HPM_P2
2022/09/29 00:02:42;;;;;;;;;;;21.50;45.60;20.30;99591.00;;;;5090781;28;19916;-71
2022/09/29 00:05:28;;;;;;;;;;;21.50;45.60;20.30;99601.00;;;;5107112;28;19920;-71
2022/09/29 00:08:14;;;;;;;;;;;21.50;45.60;20.30;99593.00;;;;5104435;28;19973;-71
2022/09/29 00:11:00;;;;;;;;;;;21.50;45.60;20.30;99598.00;;;;5105898;28;19942;-71
2022/09/29 00:13:46;;;;;;;;;;;21.50;45.60;20.30;99602.00;;;;5105317;28;19922;-71
2022/09/29 00:16:32;;;;;;;;;;;21.40;45.50;20.30;99594.00;;;;5104335;28;20318;-71
2022/09/29 00:19:21;;;;;;;;;;;21.50;45.60;20.20;99593.00;;;;5105863;28;19920;-71
2022/09/29 00:22:07;;;;;;;;;;;21.40;45.50;20.20;99597.00;;;;5102536;28;19916;-71
2022/09/29 00:24:53;;;;;;;;;;;21.40;45.50;20.20;99593.00;;;;5107614;28;19919;-71
2022/09/29 00:27:39;;;;;;;;;;;21.40;45.50;20.20;99593.00;;;;5103477;28;20331;-71
2022/09/29 00:30:25;;;;;;;;;;;21.40;45.50;20.20;99588.00;;;;5104546;28;20355;-71
2022/09/29 00:33:11;;;;;;;;;;;21.40;45.50;20.20;99581.00;;;;5101830;28;19922;-71
2022/09/29 00:35:58;;;;;;;;;;;21.40;45.50;20.20;99583.00;;;;5103585;28;19920;-71
2022/09/29 00:38:46;;;;;;;;;;;21.40;45.50;20.20;99579.00;;;;5116247;27;20385;-71
2022/09/29 00:41:33;;;;;;;;;;;21.40;45.50;20.20;99580.00;;;;5086913;28;19920;-71
2022/09/29 00:44:19;;;;;;;;;;;21.40;45.50;20.20;99581.00;;;;5105156;28;19916;-71
2022/09/29 00:47:05;;;;;;;;;;;21.40;45.50;20.20;99577.00;;;;5102563;28;19919;-71
2022/09/29 00:50:00;;;;;;;;;;;21.40;45.40;20.20;99583.00;;;;5102520;28;19930;-72
2022/09/29 00:52:51;;;;;;;;;;;21.40;46.20;20.20;99584.00;;;;5101816;27;19926;-71
2022/09/29 00:56:00;;;;;;;;;;;21.40;45.40;20.20;99580.00;;;;5089613;28;20022;-71
2022/09/29 00:58:54;;;;;;;;;;;21.40;45.40;20.20;99575.00;;;;5087935;28;19920;-71
2022/09/29 01:01:40;;;;;;;;;;;21.30;45.40;20.20;99570.00;;;;5113615;27;19970;-71
2022/09/29 01:04:26;;;;;;;;;;;21.40;45.40;20.20;99585.00;;;;5087377;28;19916;-71
2022/09/29 01:07:12;;;;;;;;;;;21.40;45.40;20.20;99584.00;;;;5112988;27;19920;-71
2022/09/29 01:09:58;;;;;;;;;;;21.30;45.40;20.20;99578.00;;;;5088769;28;20258;-71
2022/09/29 01:12:45;;;;;;;;;;;21.30;45.40;20.20;99586.00;;;;5114979;27;19920;-71
2022/09/29 01:15:31;;;;;;;;;;;21.40;45.40;20.20;99584.00;;;;5085667;28;19999;-71
2022/09/29 01:18:17;;;;;;;;;;;21.40;45.40;20.10;99589.00;;;;5103473;28;19935;-71
2022/09/29 01:21:10;;;;;;;;;;;21.30;45.40;20.20;99580.00;;;;5115593;27;20005;-71
2022/09/29 01:24:15;;;;;;;;;;;21.30;45.40;20.10;99582.00;;;;5084363;28;19971;-71
2022/09/29 01:27:25;;;;;;;;;;;21.30;45.40;20.10;99587.00;;;;5111470;27;20093;-71
2022/09/29 01:30:15;;;;;;;;;;;21.30;45.40;20.10;99586.00;;;;5114800;27;19934;-71
2022/09/29 01:33:27;;;;;;;;;;;21.30;45.40;20.10;99583.00;;;;5101289;27;20407;-72
2022/09/29 01:36:39;;;;;;;;;;;21.30;45.40;20.10;99582.00;;;;5101246;27;19970;-71
2022/09/29 01:39:29;;;;;;;;;;;21.30;45.40;20.10;99586.00;;;;5082456;28;19920;-72
2022/09/29 01:42:17;;;;;;;;;;;21.30;45.40;20.10;99586.00;;;;5087246;28;19945;-71
2022/09/29 01:45:21;;;;;;;;;;;21.30;45.40;20.10;99593.00;;;;5112409;27;19968;-71
2022/09/29 01:48:14;;;;;;;;;;;21.30;45.40;20.10;99596.00;;;;5082917;28;19924;-71
2022/09/29 01:51:04;;;;;;;;;;;21.30;45.40;20.10;99595.00;;;;5096842;28;19920;-71
2022/09/29 01:53:52;;;;;;;;;;;21.30;45.40;20.10;99592.00;;;;5102822;28;20337;-71
2022/09/29 01:56:51;;;;;;;;;;;21.30;45.40;20.10;99590.00;;;;5113527;27;19915;-71
2022/09/29 01:59:44;;;;;;;;;;;21.20;45.30;20.10;99599.00;;;;5098234;28;19920;-71
2022/09/29 02:02:33;;;;;;;;;;;21.30;45.30;20.10;99596.00;;;;5103421;28;19927;-71
2022/09/29 02:05:30;;;;;;;;;;;21.20;45.30;20.10;99594.00;;;;5101080;28;19924;-71
2022/09/29 02:08:32;;;;;;;;;;;21.30;45.30;20.00;99596.00;;;;5099750;28;20278;-71
2022/09/29 02:11:18;;;;;;;;;;;21.20;45.20;20.00;99601.00;;;;5096731;28;19916;-71
2022/09/29 02:14:13;;;;;;;;;;;21.20;45.20;20.00;99594.00;;;;5094341;28;19923;-71
2022/09/29 02:17:03;;;;;;;;;;;21.20;45.20;20.00;99595.00;;;;5094699;28;20011;-71
2022/09/29 02:19:50;;;;;;;;;;;21.20;45.20;20.00;99595.00;;;;5108021;27;19916;-71
2022/09/29 02:22:37;;;;;;;;;;;21.20;45.30;20.00;99604.00;;;;5113392;27;19916;-71
2022/09/29 02:25:23;;;;;;;;;;;21.20;45.20;20.00;99601.00;;;;5096390;28;20732;-71
2022/09/29 02:28:09;;;;;;;;;;;21.20;45.20;20.00;99601.00;;;;5105821;28;19920;-71
2022/09/29 02:30:55;;;;;;;;;;;21.20;45.20;20.00;99599.00;;;;5098095;28;19915;-71
2022/09/29 02:33:41;;;;;;;;;;;21.20;45.20;20.00;99605.00;;;;5070641;28;20431;-71
2022/09/29 02:37:04;;;;;;;;;;;21.20;45.20;20.00;99606.00;;;;5097577;28;20059;-71
2022/09/29 02:39:57;;;;;;;;;;;21.20;45.20;20.00;99598.00;;;;5027614;28;19921;-72
2022/09/29 02:42:50;;;;;;;;;;;21.20;45.30;20.00;99600.00;;;;5090023;28;20395;-71
2022/09/29 02:45:43;;;;;;;;;;;21.10;45.20;20.00;99607.00;;;;5074464;28;19915;-71
2022/09/29 02:48:55;;;;;;;;;;;21.10;45.20;20.00;99601.00;;;;5084577;28;20389;-71
2022/09/29 02:51:46;;;;;;;;;;;21.10;45.20;20.00;99611.00;;;;5092990;28;19999;-71
2022/09/29 02:54:47;;;;;;;;;;;21.10;45.20;20.00;99614.00;;;;5093905;28;19916;-71
2022/09/29 02:57:55;;;;;;;;;;;21.10;45.10;19.90;99618.00;;;;5104645;28;20015;-71
2022/09/29 03:00:41;;;;;;;;;;;21.10;45.20;19.90;99623.00;;;;5106460;28;20018;-71
2022/09/29 03:03:27;;;;;;;;;;;21.10;45.20;19.90;99618.00;;;;5095588;28;19926;-72
2022/09/29 03:06:13;;;;;;;;;;;21.10;45.10;19.90;99615.00;;;;5103995;28;19920;-71
2022/09/29 03:08:59;;;;;;;;;;;21.10;45.10;19.90;99620.00;;;;5098083;28;19916;-71
2022/09/29 03:11:46;;;;;;;;;;;21.10;45.10;19.90;99611.00;;;;5090193;28;20258;-71
2022/09/29 03:14:32;;;;;;;;;;;21.10;45.80;19.90;99609.00;;;;5095029;28;19920;-71
2022/09/29 03:17:17;;;;;;;;;;;21.10;45.10;19.90;99614.00;;;;5079216;28;19920;-71
2022/09/29 03:20:04;;;;;;;;;;;21.10;45.10;19.90;99613.00;;;;5094448;28;19980;-71
2022/09/29 03:22:50;;;;;;;;;;;21.10;45.10;19.90;99614.00;;;;5094319;28;20460;-71
2022/09/29 03:25:36;;;;;;;;;;;21.10;45.10;19.90;99621.00;;;;5096810;28;19973;-71
2022/09/29 03:28:22;;;;;;;;;;;21.10;45.10;19.90;99615.00;;;;5098097;28;19924;-71
2022/09/29 03:31:09;;;;;;;;;;;21.10;45.10;19.90;99612.00;;;;5093459;28;19915;-71
2022/09/29 03:33:54;;;;;;;;;;;21.10;45.10;19.90;99611.00;;;;5079879;28;20534;-71
2022/09/29 03:36:41;;;;;;;;;;;21.10;45.10;19.90;99610.00;;;;5099641;28;20444;-71
2022/09/29 03:39:27;;;;;;;;;;;21.00;45.00;19.90;99610.00;;;;5082043;28;19958;-71
2022/09/29 03:42:13;;;;;;;;;;;21.10;45.10;19.90;99611.00;;;;5094811;28;19920;-71
2022/09/29 03:44:59;;;;;;;;;;;21.10;45.10;19.90;99616.00;;;;5107823;28;19922;-71
2022/09/29 03:47:45;;;;;;;;;;;21.00;45.00;19.90;99611.00;;;;5096009;28;19931;-71
2022/09/29 03:50:31;;;;;;;;;;;21.00;45.00;19.90;99629.00;;;;5084990;28;19927;-71
2022/09/29 03:53:17;;;;;;;;;;;20.90;45.00;19.80;99619.00;;;;5093706;28;19973;-71
2022/09/29 03:56:03;;;;;;;;;;;21.00;45.00;19.90;99610.00;;;;5104841;28;19923;-71
2022/09/29 03:58:49;;;;;;;;;;;21.00;45.00;19.80;99599.00;;;;5094145;28;19970;-71
2022/09/29 04:01:36;;;;;;;;;;;21.00;45.00;19.80;99612.00;;;;5102430;28;19976;-71
2022/09/29 04:04:22;;;;;;;;;;;21.00;45.00;19.80;99617.00;;;;5099190;28;19968;-71
2022/09/29 04:07:08;;;;;;;;;;;21.00;45.00;19.80;99616.00;;;;5101772;28;19968;-71
2022/09/29 04:09:54;;;;;;;;;;;21.00;45.00;19.80;99623.00;;;;5099348;28;20336;-71
2022/09/29 04:12:40;;;;;;;;;;;21.10;45.00;19.80;99625.00;;;;5097527;28;20377;-71
2022/09/29 04:15:26;;;;;;;;;;;21.00;45.00;19.80;99619.00;;;;5103786;28;20395;-71
2022/09/29 04:18:12;;;;;;;;;;;21.00;44.90;19.80;99628.00;;;;5110062;27;20357;-71
2022/09/29 04:20:59;;;;;;;;;;;21.00;44.90;19.80;99624.00;;;;5099310;28;20122;-71
2022/09/29 04:23:46;;;;;;;;;;;21.00;44.90;19.80;99630.00;;;;5112779;27;20442;-71
2022/09/29 04:26:32;;;;;;;;;;;21.00;44.90;19.80;99640.00;;;;5095935;28;19927;-71
2022/09/29 04:29:18;;;;;;;;;;;20.90;44.90;19.80;99635.00;;;;5097812;28;19920;-71
2022/09/29 04:32:05;;;;;;;;;;;21.00;44.90;19.80;99642.00;;;;5100047;28;20010;-71
2022/09/29 04:34:51;;;;;;;;;;;21.00;44.90;19.80;99646.00;;;;5099420;28;19920;-71
2022/09/29 04:37:37;;;;;;;;;;;20.90;44.90;19.80;99647.00;;;;5103762;28;19923;-71
2022/09/29 04:40:24;;;;;;;;;;;20.90;44.90;19.80;99649.00;;;;5097521;28;19919;-71
2022/09/29 04:43:10;;;;;;;;;;;21.00;44.90;19.80;99656.00;;;;5111960;27;19919;-71
2022/09/29 04:46:06;;;;;;;;;;;20.90;44.90;19.80;99654.00;;;;5101333;28;19993;-71
2022/09/29 04:48:51;;;;;;;;;;;20.90;44.90;19.70;99649.00;;;;5088351;28;19920;-71
2022/09/29 04:51:38;;;;;;;;;;;20.90;44.90;19.70;99651.00;;;;5102083;28;20120;-71
2022/09/29 04:54:23;;;;;;;;;;;20.90;44.90;19.70;99647.00;;;;5102182;28;20093;-71
2022/09/29 04:57:11;;;;;;;;;;;20.90;44.90;19.70;99656.00;;;;5100001;28;19923;-71
2022/09/29 04:59:57;;;;;;;;;;;20.90;44.90;19.70;99662.00;;;;5089728;28;19959;-71
2022/09/29 05:02:43;;;;;;;;;;;20.90;44.90;19.70;99663.00;;;;5099613;27;19920;-71
2022/09/29 05:05:29;;;;;;;;;;;20.90;44.80;19.70;99657.00;;;;5102024;28;19916;-71
2022/09/29 05:08:15;;;;;;;;;;;20.90;44.80;19.70;99663.00;;;;5099410;28;19920;-71
2022/09/29 05:11:05;;;;;;;;;;;20.90;44.80;19.70;99662.00;;;;5101891;28;19920;-71
2022/09/29 05:13:51;;;;;;;;;;;20.90;44.80;19.70;99665.00;;;;5101625;28;19916;-71
2022/09/29 05:16:37;;;;;;;;;;;20.90;44.80;19.70;99670.00;;;;5096621;28;20321;-71
2022/09/29 05:19:23;;;;;;;;;;;20.90;44.80;19.70;99678.00;;;;5099348;28;20418;-71
2022/09/29 05:22:09;;;;;;;;;;;20.90;44.80;19.70;99684.00;;;;5079518;28;19915;-71
2022/09/29 05:24:55;;;;;;;;;;;20.90;44.80;19.70;99688.00;;;;5113154;27;19920;-71
2022/09/29 05:27:41;;;;;;;;;;;20.90;44.80;19.70;99688.00;;;;5095744;28;20001;-71
2022/09/29 05:30:27;;;;;;;;;;;20.90;44.90;19.70;99699.00;;;;5095590;28;20250;-71
2022/09/29 05:33:13;;;;;;;;;;;20.90;44.80;19.70;99694.00;;;;5097404;28;20357;-71
2022/09/29 05:35:59;;;;;;;;;;;20.90;44.80;19.70;99694.00;;;;5092635;28;19923;-71
2022/09/29 05:38:45;;;;;;;;;;;20.90;44.80;19.70;99694.00;;;;5085905;28;19916;-71
2022/09/29 05:41:32;;;;;;;;;;;20.90;44.80;19.70;99694.00;;;;5102723;28;20008;-71
2022/09/29 05:44:18;;;;;;;;;;;20.90;44.80;19.70;99703.00;;;;5093751;28;20308;-71
2022/09/29 05:47:04;;;;;;;;;;;20.90;44.80;19.70;99698.00;;;;5096414;28;19931;-71
2022/09/29 05:49:50;;;;;;;;;;;20.90;44.90;19.70;99708.00;;;;5098176;28;19919;-71
2022/09/29 05:52:36;;;;;;;;;;;20.90;44.80;19.70;99711.00;;;;5093834;28;20373;-71
2022/09/29 05:55:22;;;;;;;;;;;20.90;44.80;19.70;99718.00;;;;5096899;28;19920;-71
2022/09/29 05:58:08;;;;;;;;;;;20.90;44.80;19.70;99716.00;;;;5096764;28;19923;-71
2022/09/29 06:00:54;;;;;;;;;;;20.90;44.80;19.70;99710.00;;;;5101453;28;20378;-71
2022/09/29 06:03:41;;;;;;;;;;;20.90;44.80;19.70;99717.00;;;;5091785;28;19927;-71
2022/09/29 06:06:27;;;;;;;;;;;20.90;44.80;19.70;99717.00;;;;5099518;28;19920;-71
2022/09/29 06:09:13;;;;;;;;;;;20.90;44.80;19.70;99714.00;;;;5104169;27;20396;-71
2022/09/29 06:11:59;;;;;;;;;;;20.90;44.80;19.70;99719.00;;;;5110705;27;19920;-71
2022/09/29 06:14:45;;;;;;;;;;;20.90;44.80;19.70;99718.00;;;;5097808;28;19922;-71
2022/09/29 06:17:31;;;;;;;;;;;20.90;44.80;19.70;99721.00;;;;5100142;27;19916;-71
2022/09/29 06:20:17;;;;;;;;;;;20.90;44.80;19.70;99716.00;;;;5098719;28;19926;-71
2022/09/29 06:23:03;;;;;;;;;;;20.90;44.80;19.70;99724.00;;;;5082103;28;19920;-71
2022/09/29 06:25:54;;;;;;;;;;;21.00;44.80;19.70;99730.00;;;;5097070;28;19920;-71
2022/09/29 06:28:40;;;;;;;;;;;20.90;44.80;19.70;99731.00;;;;5101974;28;19931;-71
2022/09/29 06:31:27;;;;;;;;;;;20.90;44.80;19.70;99731.00;;;;5113629;27;20004;-71
2022/09/29 06:34:13;;;;;;;;;;;20.90;44.80;19.70;99726.00;;;;5107577;27;19915;-71
2022/09/29 06:40:05;;;;;;;;;;;20.90;44.80;19.70;99730.00;;;;5105063;27;19927;-71
2022/09/29 06:42:51;;;;;;;;;;;20.90;44.80;19.70;99725.00;;;;5094504;28;19955;-71
2022/09/29 06:45:37;;;;;;;;;;;20.90;44.80;19.70;99729.00;;;;5104388;27;19961;-71
2022/09/29 06:48:23;;;;;;;;;;;20.90;44.80;19.70;99737.00;;;;5098812;28;19920;-71
2022/09/29 06:51:09;;;;;;;;;;;20.90;44.80;19.70;99728.00;;;;5100089;28;20280;-71
2022/09/29 06:53:55;;;;;;;;;;;20.90;44.80;19.70;99730.00;;;;5097523;28;20655;-71
2022/09/29 06:56:41;;;;;;;;;;;20.90;44.80;19.70;99736.00;;;;5107129;27;19969;-71
2022/09/29 06:59:27;;;;;;;;;;;20.90;44.80;19.70;99738.00;;;;5108756;28;19916;-71
2022/09/29 07:02:13;;;;;;;;;;;20.90;44.80;19.70;99744.00;;;;5094387;28;19926;-71
2022/09/29 07:04:59;;;;;;;;;;;20.90;44.80;19.70;99751.00;;;;5107252;28;19926;-71
2022/09/29 07:07:48;;;;;;;;;;;20.90;44.80;19.70;99754.00;;;;5092710;28;19935;-71
2022/09/29 07:10:34;;;;;;;;;;;20.90;44.80;19.70;99750.00;;;;5095183;28;19927;-71
2022/09/29 07:13:21;;;;;;;;;;;20.90;44.80;19.70;99750.00;;;;5080565;28;20318;-71
2022/09/29 07:16:11;;;;;;;;;;;20.90;44.80;19.70;99764.00;;;;5096642;28;19919;-71
2022/09/29 07:18:57;;;;;;;;;;;20.90;44.80;19.70;99761.00;;;;5082864;28;19920;-71
2022/09/29 07:21:43;;;;;;;;;;;21.20;44.90;19.70;99769.00;;;;5093250;28;19920;-71
2022/09/29 07:24:29;;;;;;;;;;;20.90;44.80;19.70;99764.00;;;;5094776;28;19998;-71
2022/09/29 07:27:20;;;;;;;;;;;21.00;44.80;19.70;99770.00;;;;5095594;28;19948;-71
2022/09/29 07:30:06;;;;;;;;;;;21.00;44.80;19.70;99775.00;;;;5092827;28;19916;-71
2022/09/29 07:32:55;;;;;;;;;;;21.00;44.80;19.70;99781.00;;;;5100773;28;20397;-71
2022/09/29 07:35:41;;;;;;;;;;;21.00;44.80;19.70;99773.00;;;;5111626;27;19919;-71
2022/09/29 07:38:27;;;;;;;;;;;20.90;44.80;19.70;99773.00;;;;5095924;28;19919;-71
2022/09/29 07:41:13;;;;;;;;;;;20.90;44.70;19.70;99770.00;;;;5098207;27;20353;-72
2022/09/29 07:43:59;;;;;;;;;;;20.90;44.70;19.70;99770.00;;;;5102079;27;20377;-71
2022/09/29 07:46:47;;;;;;;;;;;21.00;44.80;19.70;99782.00;;;;5101909;27;19993;-71
2022/09/29 07:49:33;;;;;;;;;;;21.00;44.80;19.70;99781.00;;;;5085122;28;19958;-71
2022/09/29 07:52:19;;;;;;;;;;;21.00;44.80;19.70;99783.00;;;;5095077;28;19920;-71
2022/09/29 07:55:06;;;;;;;;;;;21.00;44.80;19.70;99780.00;;;;5101230;27;20280;-72
2022/09/29 07:57:52;;;;;;;;;;;21.00;44.80;19.70;99785.00;;;;5096136;28;20003;-71
2022/09/29 08:00:38;;;;;;;;;;;20.90;44.80;19.70;99789.00;;;;5100407;28;19923;-71
2022/09/29 08:03:25;;;;;;;;;;;21.00;44.80;19.70;99796.00;;;;5092557;28;19916;-72
2022/09/29 08:06:11;;;;;;;;;;;21.00;44.80;19.70;99799.00;;;;5106780;27;19923;-72
2022/09/29 08:08:59;;;;;;;;;;;21.00;44.80;19.70;99806.00;;;;5099414;28;20379;-71
2022/09/29 08:11:45;;;;;;;;;;;21.00;44.80;19.70;99810.00;;;;5098209;28;19916;-71
2022/09/29 08:14:31;;;;;;;;;;;21.00;44.80;19.70;99813.00;;;;5100207;28;20293;-72
2022/09/29 08:17:17;;;;;;;;;;;21.00;44.80;19.70;99812.00;;;;5091339;28;20002;-71
2022/09/29 08:20:03;;;;;;;;;;;21.00;44.80;19.70;99818.00;;;;5100434;28;19924;-71
2022/09/29 08:22:49;;;;;;;;;;;21.00;44.80;19.70;99828.00;;;;5104631;28;19920;-71
2022/09/29 08:25:35;;;;;;;;;;;21.00;44.80;19.80;99824.00;;;;5086228;28;19920;-71
2022/09/29 08:28:21;;;;;;;;;;;21.00;44.80;19.70;99826.00;;;;5097115;28;19935;-71
2022/09/29 08:31:19;;;;;;;;;;;21.10;44.80;19.80;99835.00;;;;5093286;28;19916;-71
2022/09/29 08:34:05;;;;;;;;;;;21.00;44.80;19.70;99837.00;;;;5103018;28;19958;-71
2022/09/29 08:36:51;;;;;;;;;;;21.00;44.80;19.80;99837.00;;;;5099111;28;20230;-71
2022/09/29 08:39:38;;;;;;;;;;;21.00;44.80;19.70;99841.00;;;;5093886;28;19927;-71
2022/09/29 08:42:43;;;;;;;;;;;21.00;44.80;19.80;99849.00;;;;5109258;27;19962;-72
2022/09/29 08:45:38;;;;;;;;;;;21.00;44.80;19.80;99846.00;;;;5096655;28;19947;-71
2022/09/29 08:48:24;;;;;;;;;;;21.00;44.80;19.80;99847.00;;;;5096275;28;20377;-71
2022/09/29 08:51:27;;;;;;;;;;;21.00;44.80;19.80;99849.00;;;;5111298;27;19920;-71
2022/09/29 08:54:30;;;;;;;;;;;21.00;44.80;19.80;99846.00;;;;5115619;27;19929;-71
2022/09/29 08:57:17;;;;;;;;;;;21.10;44.90;19.80;99839.00;;;;5102136;28;19915;-71
2022/09/29 09:00:06;;;;;;;;;;;21.00;44.80;19.80;99846.00;;;;5099927;28;20014;-71
2022/09/29 09:03:02;;;;;;;;;;;21.10;44.90;19.80;99852.00;;;;5084930;28;19938;-71
2022/09/29 09:06:27;;;;;;;;;;;21.00;44.80;19.80;99842.00;;;;5116744;27;19916;-71
2022/09/29 09:09:31;;;;;;;;;;;21.00;44.80;19.80;99850.00;;;;5112722;27;20002;-71
2022/09/29 09:12:31;;;;;;;;;;;21.00;44.80;19.80;99849.00;;;;5096789;28;19916;-71
2022/09/29 09:15:48;;;;;;;;;;;21.00;44.90;19.80;99855.00;;;;5087314;28;19953;-71
2022/09/29 09:19:18;;;;;;;;;;;21.00;44.80;19.80;99861.00;;;;5100536;28;20426;-71
2022/09/29 09:22:04;;;;;;;;;;;21.00;44.80;19.80;99858.00;;;;5108296;27;20345;-71
2022/09/29 09:24:54;;;;;;;;;;;21.10;44.90;19.80;99857.00;;;;5095629;28;19970;-71
2022/09/29 09:27:43;;;;;;;;;;;21.10;44.90;19.80;99864.00;;;;5084425;28;20023;-72
2022/09/29 09:30:34;;;;;;;;;;;21.00;44.90;19.80;99864.00;;;;5089411;28;20285;-71
2022/09/29 09:33:28;;;;;;;;;;;21.10;44.90;19.80;99862.00;;;;5100305;28;19915;-71
2022/09/29 09:36:20;;;;;;;;;;;21.00;44.80;19.80;99863.00;;;;5107824;27;19923;-71
2022/09/29 09:39:28;;;;;;;;;;;21.10;44.90;19.80;99857.00;;;;5092064;28;20360;-71
2022/09/29 09:42:17;;;;;;;;;;;21.10;45.00;19.80;99864.00;;;;5099478;28;19939;-71
2022/09/29 09:45:13;;;;;;;;;;;21.10;44.90;19.80;99863.00;;;;5096709;28;19923;-71
2022/09/29 09:48:15;;;;;;;;;;;21.10;44.90;19.80;99855.00;;;;5114008;27;19923;-71
2022/09/29 09:51:36;;;;;;;;;;;21.10;45.00;19.80;99858.00;;;;5074715;28;20027;-72
2022/09/29 09:54:38;;;;;;;;;;;21.10;44.90;19.80;99862.00;;;;5105295;27;19943;-71
2022/09/29 09:57:46;;;;;;;;;;;21.10;44.90;19.80;99857.00;;;;5111280;27;19945;-72
2022/09/29 10:00:36;;;;;;;;;;;21.10;44.90;19.80;99862.00;;;;5082764;28;20296;-71
2022/09/29 10:03:22;;;;;;;;;;;21.10;45.00;19.80;99861.00;;;;5112382;27;19942;-72
2022/09/29 10:06:08;;;;;;;;;;;21.10;44.90;19.80;99860.00;;;;5111904;27;19927;-72
2022/09/29 10:08:54;;;;;;;;;;;21.00;44.90;19.80;99865.00;;;;5095334;28;20450;-72
2022/09/29 10:11:40;;;;;;;;;;;21.10;44.90;19.80;99859.00;;;;5114609;27;19919;-72
2022/09/29 10:14:27;;;;;;;;;;;21.10;45.00;19.90;99868.00;;;;5096825;28;19989;-72
2022/09/29 10:17:12;;;;;;;;;;;21.10;45.00;19.90;99867.00;;;;5112368;27;19942;-71
2022/09/29 10:20:00;;;;;;;;;;;21.20;45.00;19.90;99863.00;;;;5099480;28;20278;-71
2022/09/29 10:22:47;;;;;;;;;;;21.20;45.00;19.90;99860.00;;;;5096781;28;19920;-71
2022/09/29 10:25:33;;;;;;;;;;;21.10;45.00;19.90;99864.00;;;;5094658;28;19934;-72
2022/09/29 10:28:21;;;;;;;;;;;21.20;45.00;19.90;99854.00;;;;5091186;28;22292;-72
2022/09/29 10:31:36;;;;;;;;;;;21.20;45.00;19.90;99861.00;;;;5101831;28;20201;-72
2022/09/29 10:34:23;;;;;;;;;;;21.20;45.00;19.90;99857.00;;;;5081443;28;19924;-71
2022/09/29 10:37:34;;;;;;;;;;;21.20;45.00;19.90;99866.00;;;;5106408;27;19920;-72
2022/09/29 10:40:20;;;;;;;;;;;21.20;45.00;19.90;99872.00;;;;5094150;28;20440;-71
2022/09/29 10:43:23;;;;;;;;;;;21.20;45.00;19.90;99868.00;;;;5093291;28;19942;-71
2022/09/29 10:46:29;;;;;;;;;;;21.20;45.00;19.90;99869.00;;;;5083790;28;19923;-71
2022/09/29 10:49:19;;;;;;;;;;;21.30;45.00;19.90;99876.00;;;;5094966;28;19974;-71
2022/09/29 10:52:06;;;;;;;;;;;21.20;45.00;19.90;99869.00;;;;5107051;27;20018;-71
2022/09/29 10:55:00;;;;;;;;;;;21.30;45.00;20.00;99870.00;;;;5091132;28;19916;-71
2022/09/29 10:57:47;;;;;;;;;;;21.20;45.00;20.00;99862.00;;;;5091863;28;19930;-72
2022/09/29 11:00:37;;;;;;;;;;;21.30;45.00;20.00;99860.00;;;;5067594;28;19945;-72
2022/09/29 11:03:27;;;;;;;;;;;21.30;45.00;20.00;99851.00;;;;5089552;28;20015;-72
2022/09/29 11:06:13;;;;;;;;;;;21.30;45.00;20.00;99861.00;;;;5094625;28;19925;-72
2022/09/29 11:09:00;;;;;;;;;;;21.30;45.00;20.00;99860.00;;;;5110752;27;19925;-72
2022/09/29 11:11:46;;;;;;;;;;;21.30;45.00;20.00;99866.00;;;;5100602;27;19920;-72
2022/09/29 11:14:35;;;;;;;;;;;21.30;45.00;20.00;99868.00;;;;5093404;27;20361;-72
2022/09/29 11:17:21;;;;;;;;;;;21.40;45.00;20.00;99868.00;;;;5096110;27;19916;-71
2022/09/29 11:20:10;;;;;;;;;;;21.30;45.00;20.00;99872.00;;;;5099486;27;20186;-72
2022/09/29 11:22:59;;;;;;;;;;;21.30;45.00;20.00;99864.00;;;;5111660;27;19924;-72
2022/09/29 11:25:57;;;;;;;;;;;21.40;45.00;20.00;99875.00;;;;5101702;28;19915;-72
2022/09/29 11:28:55;;;;;;;;;;;21.40;45.00;20.00;99866.00;;;;5100940;28;20006;-72
2022/09/29 11:31:51;;;;;;;;;;;21.40;45.00;20.00;99871.00;;;;5091031;28;19916;-71
2022/09/29 11:34:52;;;;;;;;;;;21.40;45.00;20.00;99869.00;;;;5099988;28;19916;-71
2022/09/29 11:38:22;;;;;;;;;;;21.40;45.00;20.00;99870.00;;;;5097916;28;19964;-72
2022/09/29 11:41:49;;;;;;;;;;;21.40;45.00;20.00;99872.00;;;;5087227;28;19969;-71
2022/09/29 11:44:57;;;;;;;;;;;21.40;45.00;20.10;99869.00;;;;5096596;28;19916;-71
2022/09/29 11:48:01;;;;;;;;;;;21.40;45.00;20.10;99872.00;;;;5113949;27;20281;-71
2022/09/29 11:51:03;;;;;;;;;;;21.40;45.00;20.10;99874.00;;;;5097204;28;20366;-71
2022/09/29 11:53:57;;;;;;;;;;;21.40;45.00;20.10;99875.00;;;;5105083;27;20061;-71
2022/09/29 11:56:52;;;;;;;;;;;21.40;45.00;20.10;99876.00;;;;5090801;28;19924;-71
2022/09/29 11:59:47;;;;;;;;;;;21.40;45.00;20.10;99876.00;;;;5099220;28;19916;-71
2022/09/29 12:03:09;;;;;;;;;;;21.40;45.00;20.10;99872.00;;;;5100761;28;19997;-71
2022/09/29 12:06:36;;;;;;;;;;;21.40;45.00;20.10;99876.00;;;;5107370;27;19916;-71
2022/09/29 12:09:45;;;;;;;;;;;21.50;45.10;20.10;99872.00;;;;5115341;27;19951;-71
2022/09/29 12:12:44;;;;;;;;;;;21.40;45.00;20.10;99873.00;;;;5108940;27;19916;-71
2022/09/29 12:16:02;;;;;;;;;;;21.50;45.00;20.10;99871.00;;;;5098488;28;19920;-71
2022/09/29 12:18:54;;;;;;;;;;;21.50;45.00;20.10;99868.00;;;;5099151;28;20117;-71
2022/09/29 12:21:49;;;;;;;;;;;21.50;45.00;20.10;99863.00;;;;5098365;28;19916;-71
2022/09/29 12:24:45;;;;;;;;;;;21.50;45.00;20.10;99868.00;;;;5099775;28;20014;-71
2022/09/29 12:27:34;;;;;;;;;;;21.50;45.00;20.10;99866.00;;;;5097494;28;19924;-71
2022/09/29 12:30:30;;;;;;;;;;;21.50;45.00;20.10;99865.00;;;;5094754;28;19923;-71
2022/09/29 12:33:20;;;;;;;;;;;21.50;45.00;20.10;99868.00;;;;5098467;28;20006;-71
2022/09/29 12:36:44;;;;;;;;;;;21.50;45.00;20.10;99866.00;;;;5081249;28;19967;-71
2022/09/29 12:39:39;;;;;;;;;;;21.60;45.00;20.10;99866.00;;;;5095943;28;20263;-71
2022/09/29 12:42:28;;;;;;;;;;;21.50;44.90;20.10;99873.00;;;;5095901;28;19916;-71
2022/09/29 12:45:31;;;;;;;;;;;21.50;44.90;20.10;99872.00;;;;5096411;28;19927;-71
2022/09/29 12:48:51;;;;;;;;;;;21.50;44.90;20.10;99881.00;;;;5089350;28;19920;-71
2022/09/29 12:51:40;;;;;;;;;;;21.60;45.00;20.10;99877.00;;;;5095502;28;20354;-71
2022/09/29 12:54:43;;;;;;;;;;;21.50;44.90;20.20;99874.00;;;;5092929;28;19927;-71
2022/09/29 12:57:35;;;;;;;;;;;21.50;44.90;20.20;99878.00;;;;5099942;28;19927;-71
2022/09/29 13:00:23;;;;;;;;;;;21.60;45.00;20.20;99879.00;;;;5100896;28;19998;-71
2022/09/29 13:03:20;;;;;;;;;;;21.60;45.00;20.20;99868.00;;;;5106986;27;19976;-71
2022/09/29 13:06:13;;;;;;;;;;;21.50;44.90;20.20;99871.00;;;;5111829;27;19931;-71
2022/09/29 13:09:02;;;;;;;;;;;21.50;44.90;20.20;99872.00;;;;5098630;28;19928;-71
2022/09/29 13:12:17;;;;;;;;;;;21.60;44.90;20.20;99883.00;;;;5108290;27;19999;-72
2022/09/29 13:15:03;;;;;;;;;;;21.60;45.00;20.20;99876.00;;;;5101025;28;20006;-71
2022/09/29 13:18:02;;;;;;;;;;;21.60;44.90;20.20;99885.00;;;;5097678;28;20396;-71
2022/09/29 13:20:50;;;;;;;;;;;21.70;44.90;20.20;99882.00;;;;5103661;28;19998;-71
2022/09/29 13:24:00;;;;;;;;;;;21.60;44.90;20.20;99878.00;;;;5095638;28;19923;-71
2022/09/29 13:27:08;;;;;;;;;;;22.00;45.10;20.20;99881.00;;;;5086014;28;19920;-72
2022/09/29 13:29:58;;;;;;;;;;;21.60;44.90;20.20;99883.00;;;;5085114;28;19981;-71
2022/09/29 13:32:49;;;;;;;;;;;21.60;44.90;20.20;99869.00;;;;5094024;28;19916;-71
2022/09/29 13:36:02;;;;;;;;;;;21.70;44.90;20.30;99881.00;;;;5109770;27;19923;-71
2022/09/29 13:38:48;;;;;;;;;;;21.60;44.80;20.20;99886.00;;;;5098450;28;20366;-72
2022/09/29 13:41:38;;;;;;;;;;;21.60;44.70;20.20;99883.00;;;;5078609;28;20274;-71
2022/09/29 13:44:27;;;;;;;;;;;21.70;44.80;20.20;99887.00;;;;5097107;28;19916;-71
2022/09/29 13:47:30;;;;;;;;;;;21.70;44.80;20.20;99891.00;;;;5107923;27;20701;-71
2022/09/29 13:50:47;;;;;;;;;;;21.70;44.70;20.20;99887.00;;;;5094242;28;19916;-71
2022/09/29 13:53:34;;;;;;;;;;;21.70;44.60;20.20;99891.00;;;;5096767;28;19916;-71
2022/09/29 13:56:20;;;;;;;;;;;21.70;44.60;20.20;99899.00;;;;5099011;28;19943;-71
2022/09/29 13:59:14;;;;;;;;;;;21.70;44.60;20.20;99894.00;;;;5098691;28;19916;-71
2022/09/29 14:02:00;;;;;;;;;;;21.70;44.60;20.20;99899.00;;;;5109668;27;19932;-71